ETH925 FOOL-FKYS
Flight info
| Callsign | ETH925 |
|---|---|
| Flight time | 0h 42m |
| Altitude | 29000 |
| Route | ARASI3S ARASI UH455 ETNOM DCT ERKUT ERKUT1S |
| Aircraft | A359/H-SDE2E3GHIJ3J4J5LM1ORWXY/LB1D1 |
Departure
| Time | 2026-04-21 14:32 |
|---|---|
| Airport | Libreville Leon M'ba International Airport (FOOL) |
Arrival
| Time | 2026-04-21 15:15 |
|---|---|
| Airport | Yaoundé Nsimalen International Airport (FKYS) |
| Time | Latitude | Longitude | Altitude | Speed | Heading |
|---|---|---|---|---|---|
| 2026-04-21 14:02 | 0.45721 | 9.41105 | 41 ft | 0 kts | 152° |
| 2026-04-21 14:28 | 0.45700 | 9.41122 | 41 ft | 7 kts | 127° |
| 2026-04-21 14:28 | 0.45700 | 9.41151 | 40 ft | 3 kts | 50° |
| 2026-04-21 14:28 | 0.45715 | 9.41161 | 40 ft | 1 kts | 14° |
| 2026-04-21 14:28 | 0.45748 | 9.41157 | 40 ft | 16 kts | 348° |
| 2026-04-21 14:29 | 0.45844 | 9.41089 | 40 ft | 17 kts | 329° |
| 2026-04-21 14:29 | 0.45953 | 9.41032 | 41 ft | 17 kts | 323° |
| 2026-04-21 14:29 | 0.46045 | 9.40968 | 41 ft | 21 kts | 336° |
| 2026-04-21 14:29 | 0.46107 | 9.40967 | 41 ft | 8 kts | 45° |
| 2026-04-21 14:30 | 0.46136 | 9.41019 | 41 ft | 15 kts | 63° |
| 2026-04-21 14:30 | 0.46200 | 9.41083 | 41 ft | 8 kts | 4° |
| 2026-04-21 14:30 | 0.46323 | 9.41011 | 42 ft | 31 kts | 332° |
| 2026-04-21 14:30 | 0.46477 | 9.40936 | 43 ft | 41 kts | 334° |
| 2026-04-21 14:31 | 0.46734 | 9.40811 | 42 ft | 41 kts | 333° |
| 2026-04-21 14:31 | 0.46987 | 9.40686 | 41 ft | 31 kts | 320° |
| 2026-04-21 14:31 | 0.47033 | 9.40645 | 41 ft | 2 kts | 8° |
| 2026-04-21 14:31 | 0.47041 | 9.40659 | 41 ft | 9 kts | 65° |
| 2026-04-21 14:32 | 0.46981 | 9.40704 | 39 ft | 29 kts | 163° |
| 2026-04-21 14:32 | 0.46584 | 9.40885 | 43 ft | 95 kts | 155° |
| 2026-04-21 14:32 | 0.45805 | 9.41260 | 41 ft | 152 kts | 155° |
| 2026-04-21 14:32 | 0.44882 | 9.41759 | 696 ft | 142 kts | 144° |
| 2026-04-21 14:33 | 0.44372 | 9.42674 | 971 ft | 169 kts | 92° |
| 2026-04-21 14:33 | 0.44743 | 9.43829 | 1293 ft | 185 kts | 60° |
| 2026-04-21 14:33 | 0.45326 | 9.45047 | 1498 ft | 204 kts | 69° |
| 2026-04-21 14:33 | 0.45760 | 9.46456 | 1769 ft | 220 kts | 76° |
| 2026-04-21 14:34 | 0.46099 | 9.47982 | 2127 ft | 230 kts | 78° |
| 2026-04-21 14:34 | 0.46418 | 9.49604 | 2397 ft | 248 kts | 79° |
| 2026-04-21 14:34 | 0.46755 | 9.51362 | 2688 ft | 263 kts | 79° |
| 2026-04-21 14:34 | 0.47112 | 9.53166 | 3298 ft | 265 kts | 78° |
| 2026-04-21 14:35 | 0.47469 | 9.54964 | 3982 ft | 263 kts | 79° |
| 2026-04-21 14:35 | 0.47812 | 9.56751 | 4621 ft | 263 kts | 79° |
| 2026-04-21 14:35 | 0.48277 | 9.58529 | 5143 ft | 267 kts | 68° |
| 2026-04-21 14:35 | 0.49338 | 9.60041 | 5690 ft | 269 kts | 42° |
| 2026-04-21 14:36 | 0.50911 | 9.61061 | 6265 ft | 271 kts | 29° |
| 2026-04-21 14:36 | 0.52578 | 9.61915 | 6770 ft | 273 kts | 28° |
| 2026-04-21 14:36 | 0.54282 | 9.62772 | 7300 ft | 275 kts | 29° |
| 2026-04-21 14:36 | 0.55996 | 9.63644 | 7817 ft | 277 kts | 30° |
| 2026-04-21 14:37 | 0.57708 | 9.64533 | 8355 ft | 278 kts | 31° |
| 2026-04-21 14:37 | 0.59426 | 9.65432 | 8871 ft | 280 kts | 31° |
| 2026-04-21 14:37 | 0.61155 | 9.66334 | 9439 ft | 281 kts | 31° |
| 2026-04-21 14:37 | 0.62894 | 9.67238 | 9945 ft | 284 kts | 31° |
| 2026-04-21 14:38 | 0.64679 | 9.68167 | 10191 ft | 296 kts | 31° |
| 2026-04-21 14:38 | 0.66545 | 9.69133 | 10396 ft | 309 kts | 30° |
| 2026-04-21 14:38 | 0.68496 | 9.70128 | 10598 ft | 321 kts | 30° |
| 2026-04-21 14:38 | 0.70519 | 9.71164 | 10781 ft | 332 kts | 30° |
| 2026-04-21 14:39 | 0.72610 | 9.72236 | 10959 ft | 343 kts | 30° |
| 2026-04-21 14:39 | 0.74762 | 9.73342 | 11114 ft | 353 kts | 30° |
| 2026-04-21 14:39 | 0.76972 | 9.74479 | 11367 ft | 359 kts | 30° |
| 2026-04-21 14:39 | 0.79203 | 9.75628 | 11706 ft | 363 kts | 30° |
| 2026-04-21 14:40 | 0.81453 | 9.76787 | 12051 ft | 365 kts | 30° |
| 2026-04-21 14:40 | 0.83718 | 9.77956 | 12404 ft | 368 kts | 30° |
| 2026-04-21 14:40 | 0.85999 | 9.79134 | 12750 ft | 370 kts | 30° |
| 2026-04-21 14:40 | 0.88292 | 9.80317 | 13109 ft | 372 kts | 30° |
| 2026-04-21 14:41 | 0.90594 | 9.81487 | 13435 ft | 373 kts | 28° |
| 2026-04-21 14:41 | 0.92924 | 9.82655 | 13707 ft | 376 kts | 28° |
| 2026-04-21 14:41 | 0.95265 | 9.83840 | 13958 ft | 379 kts | 28° |
| 2026-04-21 14:41 | 0.97629 | 9.85046 | 14193 ft | 383 kts | 29° |
| 2026-04-21 14:42 | 1.00006 | 9.86266 | 14478 ft | 384 kts | 28° |
| 2026-04-21 14:42 | 1.02388 | 9.87492 | 14775 ft | 386 kts | 29° |
| 2026-04-21 14:42 | 1.04779 | 9.88725 | 15063 ft | 388 kts | 28° |
| 2026-04-21 14:42 | 1.07180 | 9.89964 | 15364 ft | 389 kts | 28° |
| 2026-04-21 14:43 | 1.09596 | 9.91211 | 15669 ft | 391 kts | 29° |
| 2026-04-21 14:43 | 1.12020 | 9.92463 | 15953 ft | 393 kts | 28° |
| 2026-04-21 14:43 | 1.14459 | 9.93723 | 16227 ft | 395 kts | 28° |
| 2026-04-21 14:43 | 1.16909 | 9.94988 | 16533 ft | 398 kts | 28° |
| 2026-04-21 14:44 | 1.19375 | 9.96260 | 16811 ft | 400 kts | 28° |
| 2026-04-21 14:44 | 1.21823 | 9.97524 | 17063 ft | 402 kts | 29° |
| 2026-04-21 14:44 | 1.24318 | 9.98813 | 17334 ft | 404 kts | 28° |
| 2026-04-21 14:44 | 1.26855 | 10.00124 | 17587 ft | 407 kts | 28° |
| 2026-04-21 14:45 | 1.29374 | 10.01425 | 17856 ft | 408 kts | 28° |
| 2026-04-21 14:45 | 1.31899 | 10.02729 | 18112 ft | 410 kts | 28° |
| 2026-04-21 14:45 | 1.34442 | 10.04043 | 18321 ft | 412 kts | 28° |
| 2026-04-21 14:45 | 1.36961 | 10.05344 | 18554 ft | 414 kts | 28° |
| 2026-04-21 14:46 | 1.39522 | 10.06667 | 18791 ft | 415 kts | 28° |
| 2026-04-21 14:46 | 1.42092 | 10.07996 | 19028 ft | 417 kts | 28° |
| 2026-04-21 14:46 | 1.44671 | 10.09328 | 19245 ft | 418 kts | 28° |
| 2026-04-21 14:46 | 1.47258 | 10.10665 | 19465 ft | 419 kts | 28° |
| 2026-04-21 14:47 | 1.49853 | 10.12005 | 19701 ft | 420 kts | 28° |
| 2026-04-21 14:47 | 1.52458 | 10.13351 | 19920 ft | 422 kts | 28° |
| 2026-04-21 14:47 | 1.55073 | 10.14701 | 20128 ft | 424 kts | 28° |
| 2026-04-21 14:47 | 1.57696 | 10.16056 | 20343 ft | 425 kts | 28° |
| 2026-04-21 14:48 | 1.60330 | 10.17417 | 20588 ft | 426 kts | 28° |
| 2026-04-21 14:48 | 1.62967 | 10.18780 | 20819 ft | 428 kts | 28° |
| 2026-04-21 14:48 | 1.65620 | 10.20151 | 21028 ft | 430 kts | 28° |
| 2026-04-21 14:48 | 1.68281 | 10.21528 | 21224 ft | 432 kts | 27° |
| 2026-04-21 14:49 | 1.70958 | 10.22911 | 21417 ft | 434 kts | 27° |
| 2026-04-21 14:49 | 1.73642 | 10.24297 | 21631 ft | 435 kts | 27° |
| 2026-04-21 14:49 | 1.76335 | 10.25689 | 21828 ft | 436 kts | 27° |
| 2026-04-21 14:49 | 1.79031 | 10.27092 | 22023 ft | 437 kts | 28° |
| 2026-04-21 14:50 | 1.80781 | 10.28093 | 22142 ft | 438 kts | 31° |
| 2026-04-21 14:50 | 1.84248 | 10.30244 | 22401 ft | 439 kts | 34° |
| 2026-04-21 14:50 | 1.86789 | 10.31942 | 22592 ft | 440 kts | 36° |
| 2026-04-21 14:50 | 1.89308 | 10.33684 | 22825 ft | 441 kts | 36° |
| 2026-04-21 14:51 | 1.91833 | 10.35434 | 23016 ft | 442 kts | 36° |
| 2026-04-21 14:51 | 1.94372 | 10.37175 | 23214 ft | 443 kts | 35° |
| 2026-04-21 14:51 | 1.96934 | 10.38908 | 23376 ft | 445 kts | 35° |
| 2026-04-21 14:51 | 1.99506 | 10.40629 | 23543 ft | 446 kts | 35° |
| 2026-04-21 14:52 | 2.02099 | 10.42353 | 23706 ft | 447 kts | 35° |
| 2026-04-21 14:52 | 2.04690 | 10.44071 | 23856 ft | 448 kts | 34° |
| 2026-04-21 14:52 | 2.07293 | 10.45795 | 24027 ft | 449 kts | 35° |
| 2026-04-21 14:52 | 2.09898 | 10.47520 | 24183 ft | 450 kts | 34° |
| 2026-04-21 14:53 | 2.12507 | 10.49249 | 24393 ft | 450 kts | 35° |
| 2026-04-21 14:53 | 2.15122 | 10.50983 | 24528 ft | 452 kts | 34° |
| 2026-04-21 14:53 | 2.17742 | 10.52721 | 24713 ft | 452 kts | 34° |
| 2026-04-21 14:53 | 2.20364 | 10.54460 | 24837 ft | 454 kts | 34° |
| 2026-04-21 14:54 | 2.22993 | 10.56205 | 25023 ft | 454 kts | 34° |
| 2026-04-21 14:54 | 2.25630 | 10.57954 | 25119 ft | 456 kts | 34° |
| 2026-04-21 14:54 | 2.28281 | 10.59713 | 25201 ft | 460 kts | 34° |
| 2026-04-21 14:54 | 2.30952 | 10.61486 | 25328 ft | 461 kts | 34° |
| 2026-04-21 14:55 | 2.33625 | 10.63260 | 25521 ft | 461 kts | 34° |
| 2026-04-21 14:55 | 2.36299 | 10.65035 | 25656 ft | 463 kts | 34° |
| 2026-04-21 14:55 | 2.38984 | 10.66817 | 25837 ft | 463 kts | 34° |
| 2026-04-21 14:55 | 2.41672 | 10.68601 | 25978 ft | 464 kts | 34° |
| 2026-04-21 14:56 | 2.44364 | 10.70388 | 26156 ft | 465 kts | 34° |
| 2026-04-21 14:56 | 2.47063 | 10.72178 | 26299 ft | 466 kts | 34° |
| 2026-04-21 14:56 | 2.49763 | 10.73970 | 26454 ft | 467 kts | 34° |
| 2026-04-21 14:56 | 2.52477 | 10.75773 | 26621 ft | 468 kts | 34° |
| 2026-04-21 14:57 | 2.55153 | 10.77551 | 26768 ft | 469 kts | 34° |
| 2026-04-21 14:57 | 2.57874 | 10.79358 | 26680 ft | 472 kts | 34° |
| 2026-04-21 14:57 | 2.60644 | 10.81199 | 26320 ft | 484 kts | 34° |
| 2026-04-21 14:57 | 2.63458 | 10.83068 | 25855 ft | 486 kts | 34° |
| 2026-04-21 14:58 | 2.66267 | 10.84934 | 25212 ft | 484 kts | 34° |
| 2026-04-21 14:58 | 2.69067 | 10.86794 | 24514 ft | 482 kts | 34° |
| 2026-04-21 14:58 | 2.71858 | 10.88648 | 23799 ft | 481 kts | 34° |
| 2026-04-21 14:58 | 2.74634 | 10.90492 | 23085 ft | 478 kts | 34° |
| 2026-04-21 14:59 | 2.77396 | 10.92327 | 22360 ft | 474 kts | 35° |
| 2026-04-21 14:59 | 2.80123 | 10.94140 | 21698 ft | 469 kts | 35° |
| 2026-04-21 14:59 | 2.82826 | 10.95936 | 21033 ft | 464 kts | 35° |
| 2026-04-21 14:59 | 2.85494 | 10.97709 | 20367 ft | 454 kts | 34° |
| 2026-04-21 15:00 | 2.88099 | 10.99413 | 19149 ft | 443 kts | 34° |
| 2026-04-21 15:00 | 2.90616 | 11.01147 | 17793 ft | 435 kts | 40° |
| 2026-04-21 15:00 | 2.92746 | 11.03234 | 16499 ft | 422 kts | 49° |
| 2026-04-21 15:00 | 2.94645 | 11.05413 | 15377 ft | 409 kts | 51° |
| 2026-04-21 15:01 | 2.96464 | 11.07542 | 14248 ft | 398 kts | 51° |
| 2026-04-21 15:01 | 2.98236 | 11.09620 | 13068 ft | 387 kts | 51° |
| 2026-04-21 15:01 | 2.99961 | 11.11643 | 11840 ft | 379 kts | 51° |
| 2026-04-21 15:01 | 3.01655 | 11.13629 | 10654 ft | 371 kts | 51° |
| 2026-04-21 15:02 | 3.03309 | 11.15568 | 9521 ft | 362 kts | 51° |
| 2026-04-21 15:02 | 3.04890 | 11.17414 | 8996 ft | 334 kts | 50° |
| 2026-04-21 15:02 | 3.06336 | 11.19087 | 8754 ft | 302 kts | 50° |
| 2026-04-21 15:02 | 3.07645 | 11.20608 | 8494 ft | 277 kts | 50° |
| 2026-04-21 15:03 | 3.08883 | 11.22049 | 8262 ft | 273 kts | 47° |
| 2026-04-21 15:03 | 3.10144 | 11.23460 | 8084 ft | 271 kts | 47° |
| 2026-04-21 15:03 | 3.11391 | 11.24865 | 7836 ft | 270 kts | 48° |
| 2026-04-21 15:03 | 3.12628 | 11.26279 | 7670 ft | 270 kts | 48° |
| 2026-04-21 15:04 | 3.13861 | 11.27703 | 7530 ft | 271 kts | 48° |
| 2026-04-21 15:04 | 3.15091 | 11.29125 | 7470 ft | 270 kts | 47° |
| 2026-04-21 15:04 | 3.16319 | 11.30550 | 7257 ft | 272 kts | 48° |
| 2026-04-21 15:04 | 3.17543 | 11.31991 | 7093 ft | 273 kts | 48° |
| 2026-04-21 15:05 | 3.18778 | 11.33439 | 7028 ft | 274 kts | 48° |
| 2026-04-21 15:05 | 3.21244 | 11.36322 | 6831 ft | 274 kts | 48° |
| 2026-04-21 15:05 | 3.22483 | 11.37771 | 6736 ft | 275 kts | 47° |
| 2026-04-21 15:06 | 3.23732 | 11.39221 | 6669 ft | 275 kts | 46° |
| 2026-04-21 15:06 | 3.24976 | 11.40668 | 6585 ft | 273 kts | 47° |
| 2026-04-21 15:06 | 3.26188 | 11.42090 | 6463 ft | 269 kts | 48° |
| 2026-04-21 15:06 | 3.27414 | 11.43527 | 6401 ft | 273 kts | 44° |
| 2026-04-21 15:07 | 3.28706 | 11.44930 | 6298 ft | 275 kts | 42° |
| 2026-04-21 15:07 | 3.30018 | 11.46334 | 6205 ft | 277 kts | 42° |
| 2026-04-21 15:07 | 3.31499 | 11.47499 | 6193 ft | 264 kts | 19° |
| 2026-04-21 15:07 | 3.33207 | 11.48172 | 6066 ft | 271 kts | 12° |
| 2026-04-21 15:08 | 3.35053 | 11.48671 | 5959 ft | 278 kts | 5° |
| 2026-04-21 15:08 | 3.36973 | 11.49002 | 5847 ft | 281 kts | 2° |
| 2026-04-21 15:08 | 3.38915 | 11.49299 | 5724 ft | 280 kts | 3° |
| 2026-04-21 15:08 | 3.40822 | 11.49635 | 5639 ft | 281 kts | 4° |
| 2026-04-21 15:09 | 3.42727 | 11.49982 | 5537 ft | 276 kts | 4° |
| 2026-04-21 15:09 | 3.44636 | 11.50330 | 5477 ft | 282 kts | 4° |
| 2026-04-21 15:09 | 3.46555 | 11.50670 | 5388 ft | 279 kts | 4° |
| 2026-04-21 15:09 | 3.48478 | 11.51018 | 5289 ft | 281 kts | 4° |
| 2026-04-21 15:10 | 3.50387 | 11.51367 | 5192 ft | 275 kts | 4° |
| 2026-04-21 15:10 | 3.52204 | 11.51714 | 5063 ft | 257 kts | 5° |
| 2026-04-21 15:10 | 3.53371 | 11.51939 | 4988 ft | 251 kts | 3° |
| 2026-04-21 15:10 | 3.54906 | 11.52221 | 4859 ft | 237 kts | 3° |
| 2026-04-21 15:11 | 3.56467 | 11.52515 | 4738 ft | 221 kts | 3° |
| 2026-04-21 15:11 | 3.57916 | 11.52781 | 4630 ft | 203 kts | 2° |
| 2026-04-21 15:11 | 3.59255 | 11.53025 | 4515 ft | 188 kts | 2° |
| 2026-04-21 15:11 | 3.59429 | 11.53057 | 4496 ft | 186 kts | 2° |
| 2026-04-21 15:12 | 3.60073 | 11.53167 | 4388 ft | 180 kts | 1° |
| 2026-04-21 15:12 | 3.61281 | 11.53360 | 4147 ft | 171 kts | 1° |
| 2026-04-21 15:12 | 3.62409 | 11.53560 | 3918 ft | 159 kts | 2° |
| 2026-04-21 15:12 | 3.63480 | 11.53758 | 3720 ft | 155 kts | 1° |
| 2026-04-21 15:13 | 3.64198 | 11.53886 | 3571 ft | 155 kts | 2° |
| 2026-04-21 15:13 | 3.65605 | 11.54141 | 3303 ft | 155 kts | 2° |
| 2026-04-21 15:13 | 3.66668 | 11.54331 | 3106 ft | 155 kts | 2° |
| 2026-04-21 15:13 | 3.67735 | 11.54521 | 2840 ft | 155 kts | 12° |
| 2026-04-21 15:14 | 3.68776 | 11.54739 | 2642 ft | 150 kts | 9° |
| 2026-04-21 15:14 | 3.69821 | 11.54906 | 2476 ft | 154 kts | 10° |
| 2026-04-21 15:14 | 3.70874 | 11.55090 | 2279 ft | 153 kts | 11° |
| 2026-04-21 15:14 | 3.71857 | 11.55265 | 2261 ft | 127 kts | 9° |
| 2026-04-21 15:15 | 3.72450 | 11.55369 | 2263 ft | 44 kts | 10° |
| 2026-04-21 15:15 | 3.72659 | 11.55405 | 2265 ft | 34 kts | 10° |
| 2026-04-21 15:15 | 3.72886 | 11.55445 | 2268 ft | 32 kts | 10° |
| 2026-04-21 15:15 | 3.73104 | 11.55482 | 2267 ft | 34 kts | 9° |
| 2026-04-21 15:16 | 3.73344 | 11.55524 | 2267 ft | 34 kts | 10° |
| 2026-04-21 15:16 | 3.73481 | 11.55549 | 2266 ft | 7 kts | 9° |
| 2026-04-21 15:16 | 3.73495 | 11.55551 | 2266 ft | 0 kts | 8° |
| 2026-04-21 15:17 | 3.73583 | 11.55566 | 2264 ft | 25 kts | 10° |
| 2026-04-21 15:18 | 3.73744 | 11.55601 | 2264 ft | 13 kts | 352° |
| 2026-04-21 15:18 | 3.73763 | 11.55575 | 2264 ft | 2 kts | 248° |
| 2026-04-21 15:18 | 3.73697 | 11.55571 | 2264 ft | 18 kts | 173° |
| 2026-04-21 15:18 | 3.73549 | 11.55563 | 2265 ft | 21 kts | 191° |
| 2026-04-21 15:19 | 3.73329 | 11.55522 | 2267 ft | 44 kts | 190° |
| 2026-04-21 15:19 | 3.72935 | 11.55455 | 2268 ft | 69 kts | 189° |
| 2026-04-21 15:19 | 3.72472 | 11.55375 | 2264 ft | 66 kts | 190° |
| 2026-04-21 15:19 | 3.72027 | 11.55296 | 2261 ft | 62 kts | 190° |
| 2026-04-21 15:20 | 3.71739 | 11.55227 | 2263 ft | 26 kts | 206° |
| 2026-04-21 15:20 | 3.71595 | 11.55130 | 2265 ft | 22 kts | 219° |
| 2026-04-21 15:20 | 3.71491 | 11.55036 | 2267 ft | 13 kts | 242° |
| 2026-04-21 15:20 | 3.71489 | 11.55016 | 2267 ft | 0 kts | 269° |
| 2026-04-21 15:22 | 3.71471 | 11.54969 | 2268 ft | 7 kts | 221° |
| 2026-04-21 15:22 | 3.71424 | 11.54945 | 2268 ft | 10 kts | 197° |
| 2026-04-21 15:22 | 3.71415 | 11.54932 | 2268 ft | 1 kts | 255° |
| 2026-04-21 15:22 | 3.71415 | 11.54915 | 2268 ft | 5 kts | 271° |
| 2026-04-21 15:23 | 3.71418 | 11.54880 | 2268 ft | 5 kts | 284° |
| 2026-04-21 15:23 | 3.71420 | 11.54874 | 2268 ft | 0 kts | 284° |
| 2026-04-21 15:24 | 3.71399 | 11.54854 | 2268 ft | 0 kts | 192° |